createdAt,value
2016-05-30T00:00:55.609Z,1004.06
2016-05-30T00:01:55.627Z,1004.06
2016-05-30T00:02:55.646Z,1004.05
2016-05-30T00:03:55.664Z,1004.02
2016-05-30T00:04:55.699Z,1004
2016-05-30T00:05:55.732Z,1003.97
2016-05-30T00:06:55.750Z,1003.94
2016-05-30T00:07:55.768Z,1003.92
2016-05-30T00:08:55.802Z,1003.92
2016-05-30T00:09:55.821Z,1003.92
2016-05-30T00:10:55.855Z,1003.88
2016-05-30T00:11:55.873Z,1003.88
2016-05-30T00:12:55.907Z,1003.86
2016-05-30T00:13:55.926Z,1003.85
2016-05-30T00:14:55.959Z,1003.88
2016-05-30T00:15:55.978Z,1003.85
2016-05-30T00:16:56.012Z,1003.88
2016-05-30T00:17:56.029Z,1003.92
2016-05-30T00:18:56.048Z,1003.91
2016-05-30T00:19:56.082Z,1003.92
2016-05-30T00:20:56.100Z,1003.85
2016-05-30T00:21:56.150Z,1003.85
2016-05-30T00:22:56.153Z,1003.82
2016-05-30T00:23:56.186Z,1003.77
2016-05-30T00:24:56.205Z,1003.77
2016-05-30T00:25:56.238Z,1003.71
2016-05-30T00:26:56.257Z,1003.66
2016-05-30T00:27:56.292Z,1003.64
2016-05-30T00:28:56.309Z,1003.67
2016-05-30T00:29:56.328Z,1003.65
2016-05-30T00:30:56.361Z,1003.65
2016-05-30T00:31:56.396Z,1003.68
2016-05-30T00:32:56.413Z,1003.65
2016-05-30T00:33:56.432Z,1003.64
2016-05-30T00:34:56.466Z,1003.59
2016-05-30T00:35:56.485Z,1003.59
2016-05-30T00:36:56.519Z,1003.54
2016-05-30T00:37:56.537Z,1003.5
2016-05-30T00:38:56.554Z,1003.5
2016-05-30T00:39:56.589Z,1003.53
2016-05-30T00:40:56.608Z,1003.5
2016-05-30T00:41:56.641Z,1003.43
2016-05-30T00:42:56.660Z,1003.46
2016-05-30T00:43:56.693Z,1003.42
2016-05-30T00:44:56.712Z,1003.45
2016-05-30T00:45:56.746Z,1003.4
2016-05-30T00:46:56.765Z,1003.38
2016-05-30T00:47:56.782Z,1003.35
2016-05-30T00:48:56.817Z,1003.31
2016-05-30T00:49:56.835Z,1003.3
2016-05-30T00:50:56.868Z,1003.31
2016-05-30T00:51:56.887Z,1003.31
2016-05-30T00:52:56.920Z,1003.29
2016-05-30T00:53:56.939Z,1003.3
2016-05-30T00:54:56.973Z,1003.25
2016-05-30T00:55:56.992Z,1003.26
2016-05-30T00:56:57.025Z,1003.24
2016-05-30T00:57:57.044Z,1003.23
2016-05-30T00:58:57.062Z,1003.22
2016-05-30T00:59:57.096Z,1003.21
2016-05-30T01:00:57.114Z,1003.24
2016-05-30T01:01:57.147Z,1003.18
2016-05-30T01:02:57.166Z,1003.17
2016-05-30T01:03:57.200Z,1003.15
2016-05-30T01:04:57.219Z,1003.12
2016-05-30T01:05:57.252Z,1003.08
2016-05-30T01:06:57.271Z,1003.05
2016-05-30T01:07:57.305Z,1003.05
2016-05-30T01:08:57.323Z,1003.01
2016-05-30T01:09:57.341Z,1003
2016-05-30T01:10:57.375Z,1003.04
2016-05-30T01:11:57.393Z,1003
2016-05-30T01:12:57.427Z,1003.02
2016-05-30T01:13:57.446Z,1003.02
2016-05-30T01:14:57.464Z,1002.99
2016-05-30T01:15:57.499Z,1003.04
2016-05-30T01:16:57.532Z,1003.03
2016-05-30T01:17:57.551Z,1003.06
2016-05-30T01:18:57.568Z,1003.05
2016-05-30T01:19:57.603Z,1003.08
2016-05-30T01:20:57.621Z,1003.07
2016-05-30T01:21:57.656Z,1003.07
2016-05-30T01:22:57.673Z,1003.12
2016-05-30T01:23:57.707Z,1003.1
2016-05-30T01:24:57.757Z,1003.1
2016-05-30T01:25:57.760Z,1003.08
2016-05-30T01:26:57.778Z,1003.08
2016-05-30T01:27:57.812Z,1003.07
2016-05-30T01:28:57.830Z,1003.08
2016-05-30T01:29:57.864Z,1003.08
2016-05-30T01:30:57.883Z,1003.1
2016-05-30T01:31:57.900Z,1003.07
2016-05-30T01:32:57.935Z,1003.03
2016-05-30T01:33:57.952Z,1003.05
2016-05-30T01:34:57.987Z,1003.04
2016-05-30T01:35:58.005Z,1003.03
2016-05-30T01:36:58.039Z,1002.99
2016-05-30T01:37:58.057Z,1003.01
2016-05-30T01:38:58.076Z,1003.01
2016-05-30T01:39:58.110Z,1003
2016-05-30T01:40:58.128Z,1003.03
2016-05-30T01:41:58.162Z,1003.02
2016-05-30T01:42:58.180Z,1003.01
2016-05-30T01:43:58.215Z,1003.03
2016-05-30T01:44:58.232Z,1003.04
2016-05-30T01:45:58.266Z,1003.06
2016-05-30T01:46:58.284Z,1003.04
2016-05-30T01:47:58.318Z,1003
2016-05-30T01:48:58.337Z,1003.04
2016-05-30T01:49:58.356Z,1003.05
2016-05-30T01:50:58.389Z,1003.05
2016-05-30T01:51:58.736Z,1003.03
2016-05-30T01:52:58.442Z,1003.03
2016-05-30T01:53:58.459Z,1003
2016-05-30T01:54:58.494Z,1002.99
2016-05-30T01:55:58.511Z,1003
2016-05-30T01:56:58.545Z,1003
2016-05-30T01:57:58.564Z,1002.99
2016-05-30T01:58:58.583Z,1002.97
2016-05-30T01:59:58.616Z,1002.97
2016-05-30T02:00:58.636Z,1003.02
2016-05-30T02:01:58.669Z,1003
2016-05-30T02:02:58.686Z,1002.97
2016-05-30T02:03:58.721Z,1002.97
2016-05-30T02:04:58.739Z,1002.95
2016-05-30T02:05:58.774Z,1002.94
2016-05-30T02:06:58.792Z,1002.93
2016-05-30T02:07:58.811Z,1002.89
2016-05-30T02:08:58.843Z,1002.9
2016-05-30T02:09:58.863Z,1002.92
2016-05-30T02:10:58.896Z,1002.9
2016-05-30T02:11:58.915Z,1002.97
2016-05-30T02:12:58.949Z,1002.98
2016-05-30T02:13:58.966Z,1002.93
2016-05-30T02:14:59.001Z,1002.97
2016-05-30T02:15:59.019Z,1002.98
2016-05-30T02:16:59.054Z,1002.96
2016-05-30T02:17:59.071Z,1002.95
2016-05-30T02:18:59.090Z,1003
2016-05-30T02:19:59.124Z,1002.99
2016-05-30T02:20:59.142Z,1002.96
2016-05-30T02:21:59.176Z,1002.96
2016-05-30T02:22:59.194Z,1002.97
2016-05-30T02:23:59.228Z,1002.95
2016-05-30T02:24:59.246Z,1002.96
2016-05-30T02:25:59.265Z,1002.98
2016-05-30T02:26:59.298Z,1003.02
2016-05-30T02:27:59.317Z,1003.04
2016-05-30T02:28:59.351Z,1003.01
2016-05-30T02:29:59.369Z,1003.07
2016-05-30T02:30:59.403Z,1003.04
2016-05-30T02:31:59.421Z,1003.1
2016-05-30T02:32:59.456Z,1003.04
2016-05-30T02:33:59.474Z,1003.06
2016-05-30T02:34:59.492Z,1003.04
2016-05-30T02:35:59.541Z,1003.05
2016-05-30T02:37:00.200Z,1003.05
2016-05-30T02:37:59.578Z,1002.96
2016-05-30T02:38:59.609Z,1002.99
2016-05-30T02:39:59.670Z,1002.95
2016-05-30T02:40:59.715Z,1002.97
2016-05-30T02:41:59.760Z,1002.96
2016-05-30T02:42:59.822Z,1002.93
2016-05-30T02:43:59.874Z,1002.9
2016-05-30T02:44:59.903Z,1002.9
2016-05-30T02:45:59.930Z,1002.86
2016-05-30T02:46:59.973Z,1002.82
2016-05-30T02:48:00.001Z,1002.81
2016-05-30T02:49:00.042Z,1002.84
2016-05-30T02:50:00.063Z,1002.83
2016-05-30T02:51:00.086Z,1002.82
2016-05-30T02:52:00.123Z,1002.76
2016-05-30T02:53:00.160Z,1002.75
2016-05-30T02:54:00.181Z,1002.72
2016-05-30T02:55:00.200Z,1002.72
2016-05-30T02:56:00.236Z,1002.75
2016-05-30T02:57:00.255Z,1002.68
2016-05-30T02:58:00.290Z,1002.69
2016-05-30T02:59:00.309Z,1002.7
2016-05-30T03:00:00.344Z,1002.71
2016-05-30T03:01:00.380Z,1002.7
2016-05-30T03:02:00.397Z,1002.7
2016-05-30T03:03:00.417Z,1002.66
2016-05-30T03:04:00.435Z,1002.69
2016-05-30T03:05:00.470Z,1002.66
2016-05-30T03:06:00.488Z,1002.68
2016-05-30T03:07:00.522Z,1002.67
2016-05-30T03:08:00.555Z,1002.66
2016-05-30T03:09:00.574Z,1002.65
2016-05-30T03:10:00.593Z,1002.62
2016-05-30T03:11:00.626Z,1002.61
2016-05-30T03:12:00.645Z,1002.62
2016-05-30T03:13:00.663Z,1002.57
2016-05-30T03:14:00.712Z,1002.56
2016-05-30T03:15:00.715Z,1002.54
2016-05-30T03:16:00.750Z,1002.54
2016-05-30T03:17:00.767Z,1002.48
2016-05-30T03:18:00.802Z,1002.47
2016-05-30T03:19:00.835Z,1002.48
2016-05-30T03:20:00.838Z,1002.48
2016-05-30T03:21:00.872Z,1002.49
2016-05-30T03:22:00.890Z,1002.47
2016-05-30T03:23:00.924Z,1002.51
2016-05-30T03:24:00.943Z,1002.46
2016-05-30T03:25:00.977Z,1002.43
2016-05-30T03:26:00.994Z,1002.4
2016-05-30T03:27:01.028Z,1002.46
2016-05-30T03:28:01.047Z,1002.41
2016-05-30T03:29:01.081Z,1002.43
2016-05-30T03:30:01.099Z,1002.45
2016-05-30T03:31:01.132Z,1002.43
2016-05-30T03:32:01.151Z,1002.42
2016-05-30T03:33:01.185Z,1002.41
2016-05-30T03:34:01.203Z,1002.38
2016-05-30T03:35:01.222Z,1002.37
2016-05-30T03:36:01.256Z,1002.42
2016-05-30T03:37:01.274Z,1002.4
2016-05-30T03:38:01.309Z,1002.37
2016-05-30T03:39:01.327Z,1002.38
2016-05-30T03:40:01.344Z,1002.4
2016-05-30T03:41:01.379Z,1002.47
2016-05-30T03:42:01.413Z,1002.43
2016-05-30T03:43:01.431Z,1002.49
2016-05-30T03:44:01.450Z,1002.47
2016-05-30T03:45:01.484Z,1002.47
2016-05-30T03:46:01.502Z,1002.46
2016-05-30T03:47:01.520Z,1002.46
2016-05-30T03:48:01.553Z,1002.44
2016-05-30T03:49:01.572Z,1002.46
2016-05-30T03:50:01.606Z,1002.39
2016-05-30T03:51:01.625Z,1002.36
2016-05-30T03:52:01.658Z,1002.37
2016-05-30T03:53:01.677Z,1002.31
2016-05-30T03:54:01.710Z,1002.31
2016-05-30T03:55:01.729Z,1002.26
2016-05-30T03:56:01.763Z,1002.29
2016-05-30T03:57:01.782Z,1002.22
2016-05-30T03:58:01.799Z,1002.24
2016-05-30T03:59:01.833Z,1002.19
2016-05-30T04:00:01.852Z,1002.18
2016-05-30T04:01:01.885Z,1002.22
2016-05-30T04:02:01.904Z,1002.16
2016-05-30T04:03:01.937Z,1002.16
2016-05-30T04:04:01.957Z,1002.27
2016-05-30T04:05:01.974Z,1002.25
2016-05-30T04:06:02.009Z,1002.26
2016-05-30T04:07:02.776Z,1002.28
2016-05-30T04:08:02.061Z,1002.28
2016-05-30T04:09:02.079Z,1002.34
2016-05-30T04:10:02.113Z,1002.32
2016-05-30T04:11:02.132Z,1002.31
2016-05-30T04:12:02.165Z,1002.39
2016-05-30T04:13:02.183Z,1002.37
2016-05-30T04:14:02.218Z,1002.43
2016-05-30T04:15:02.236Z,1002.43
2016-05-30T04:16:02.254Z,1002.45
2016-05-30T04:17:02.289Z,1002.46
2016-05-30T04:18:02.306Z,1002.45
2016-05-30T04:19:02.341Z,1002.47
2016-05-30T04:20:02.359Z,1002.48
2016-05-30T04:21:02.392Z,1002.52
2016-05-30T04:22:02.411Z,1002.49
2016-05-30T04:23:02.445Z,1002.51
2016-05-30T04:24:02.463Z,1002.53
2016-05-30T04:25:02.482Z,1002.56
2016-05-30T04:26:02.515Z,1002.52
2016-05-30T04:27:02.549Z,1002.53
2016-05-30T04:28:02.568Z,1002.56
2016-05-30T04:29:02.585Z,1002.52
2016-05-30T04:30:02.620Z,1002.59
2016-05-30T04:31:02.638Z,1002.57
2016-05-30T04:32:02.657Z,1002.56
2016-05-30T04:33:02.690Z,1002.6
2016-05-30T04:34:02.709Z,1002.64
2016-05-30T04:35:02.742Z,1002.61
2016-05-30T04:36:02.761Z,1002.66
2016-05-30T04:37:03.171Z,1002.67
2016-05-30T04:38:02.813Z,1002.7
2016-05-30T04:39:02.847Z,1002.68
2016-05-30T04:40:02.865Z,1002.68
2016-05-30T04:41:02.900Z,1002.69
2016-05-30T04:42:02.917Z,1002.64
2016-05-30T04:43:02.937Z,1002.65
2016-05-30T04:44:02.970Z,1002.62
2016-05-30T04:45:02.988Z,1002.67
2016-05-30T04:46:03.023Z,1002.64
2016-05-30T04:47:03.041Z,1002.63
2016-05-30T04:48:03.075Z,1002.61
2016-05-30T04:49:03.093Z,1002.58
2016-05-30T04:50:03.111Z,1002.6
2016-05-30T04:51:03.145Z,1002.61
2016-05-30T04:52:03.164Z,1002.56
2016-05-30T04:53:03.197Z,1002.56
2016-05-30T04:54:03.216Z,1002.52
2016-05-30T04:55:03.250Z,1002.54
2016-05-30T04:56:03.268Z,1002.5
2016-05-30T04:57:03.302Z,1002.49
2016-05-30T04:58:03.321Z,1002.49
2016-05-30T04:59:03.338Z,1002.5
2016-05-30T05:00:03.372Z,1002.52
2016-05-30T05:01:03.391Z,1002.53
2016-05-30T05:02:03.424Z,1002.58
2016-05-30T05:03:03.443Z,1002.53
2016-05-30T05:04:03.477Z,1002.57
2016-05-30T05:05:03.495Z,1002.59
2016-05-30T05:06:03.513Z,1002.61
2016-05-30T05:07:03.548Z,1002.62
2016-05-30T05:08:03.565Z,1002.6
2016-05-30T05:09:03.600Z,1002.66
2016-05-30T05:10:03.618Z,1002.6
2016-05-30T05:11:03.651Z,1002.56
2016-05-30T05:12:03.670Z,1002.57
2016-05-30T05:13:03.689Z,1002.58
2016-05-30T05:14:03.722Z,1002.58
2016-05-30T05:15:03.741Z,1002.61
2016-05-30T05:16:03.775Z,1002.55
2016-05-30T05:17:03.793Z,1002.58
2016-05-30T05:18:03.827Z,1002.58
2016-05-30T05:19:03.845Z,1002.6
2016-05-30T05:20:03.880Z,1002.58
2016-05-30T05:21:03.898Z,1002.57
2016-05-30T05:22:03.932Z,1002.57
2016-05-30T05:23:03.950Z,1002.57
2016-05-30T05:24:03.969Z,1002.55
2016-05-30T05:25:04.002Z,1002.61
2016-05-30T05:26:04.021Z,1002.54
2016-05-30T05:27:04.055Z,1002.5
2016-05-30T05:28:04.073Z,1002.47
2016-05-30T05:29:04.107Z,1002.44
2016-05-30T05:30:04.124Z,1002.43
2016-05-30T05:31:04.160Z,1002.42
2016-05-30T05:32:04.177Z,1002.41
2016-05-30T05:33:04.196Z,1002.42
2016-05-30T05:34:04.229Z,1002.45
2016-05-30T05:35:04.248Z,1002.42
2016-05-30T05:36:04.282Z,1002.44
2016-05-30T05:37:04.300Z,1002.42
2016-05-30T05:38:04.334Z,1002.35
2016-05-30T05:39:04.368Z,1002.35
2016-05-30T05:40:04.386Z,1002.36
2016-05-30T05:41:04.405Z,1002.34
2016-05-30T05:42:04.423Z,1002.32
2016-05-30T05:43:04.457Z,1002.31
2016-05-30T05:44:04.475Z,1002.31
2016-05-30T05:45:04.509Z,1002.27
2016-05-30T05:46:04.527Z,1002.28
2016-05-30T05:47:04.562Z,1002.27
2016-05-30T05:48:04.580Z,1002.23
2016-05-30T05:49:04.598Z,1002.2
2016-05-30T05:50:04.632Z,1002.11
2016-05-30T05:51:04.650Z,1002.06
2016-05-30T05:52:04.683Z,1002.02
2016-05-30T05:53:04.702Z,1001.94
2016-05-30T05:54:04.737Z,1001.87
2016-05-30T05:55:04.755Z,1001.82
2016-05-30T05:56:04.789Z,1001.79
2016-05-30T05:57:04.807Z,1001.68
2016-05-30T05:58:04.841Z,1001.67
2016-05-30T05:59:04.860Z,1001.58
2016-05-30T06:00:04.878Z,1001.51
2016-05-30T06:01:04.911Z,1001.47
2016-05-30T06:02:04.930Z,1001.4
2016-05-30T06:03:04.964Z,1001.36
2016-05-30T06:04:04.982Z,1001.29
2016-05-30T06:05:05.016Z,1001.28
2016-05-30T06:06:05.035Z,1001.24
2016-05-30T06:07:05.068Z,1001.19
2016-05-30T06:08:06.665Z,1001.15
2016-05-30T06:09:05.121Z,1001.2
2016-05-30T06:10:05.139Z,1001.25
2016-05-30T06:11:05.173Z,1001.3
2016-05-30T06:12:05.191Z,1001.28
2016-05-30T06:13:05.209Z,1001.32
2016-05-30T06:14:05.228Z,1001.32
2016-05-30T06:15:05.262Z,1001.24
2016-05-30T06:16:05.280Z,1001.24
2016-05-30T06:17:05.314Z,1001.26
2016-05-30T06:18:05.332Z,1001.15
2016-05-30T06:19:05.366Z,1001.15
2016-05-30T06:20:05.384Z,1001.14
2016-05-30T06:21:05.419Z,1001.1
2016-05-30T06:22:05.436Z,1001.12
2016-05-30T06:23:05.470Z,1001.16
2016-05-30T06:24:05.489Z,1001.19
2016-05-30T06:25:05.507Z,1001.19
2016-05-30T06:26:05.541Z,1001.21
2016-05-30T06:27:05.560Z,1001.21
2016-05-30T06:28:05.593Z,1001.22
2016-05-30T06:29:05.611Z,1001.26
2016-05-30T06:30:05.646Z,1001.22
2016-05-30T06:31:05.663Z,1001.18
2016-05-30T06:32:05.682Z,1001.11
2016-05-30T06:33:07.951Z,1001.12
2016-05-30T06:34:05.735Z,1001.09
2016-05-30T06:35:05.769Z,1001.12
2016-05-30T06:36:05.787Z,1001.12
2016-05-30T06:37:05.837Z,1001.13
2016-05-30T06:38:05.839Z,1001.15
2016-05-30T06:39:05.873Z,1001.17
2016-05-30T06:40:05.891Z,1001.17
2016-05-30T06:41:05.909Z,1001.17
2016-05-30T06:42:05.944Z,1001.21
2016-05-30T06:43:07.493Z,1001.24
2016-05-30T06:44:05.996Z,1001.21
2016-05-30T06:45:06.529Z,1001.21
2016-05-30T06:46:06.048Z,1001.26
2016-05-30T06:47:06.082Z,1001.25
2016-05-30T06:48:06.100Z,1001.3
2016-05-30T06:49:06.120Z,1001.3
2016-05-30T06:50:06.137Z,1001.28
2016-05-30T06:51:06.170Z,1001.29
2016-05-30T06:52:06.206Z,1001.29
2016-05-30T06:53:08.005Z,1001.26
2016-05-30T06:54:06.241Z,1001.28
2016-05-30T06:55:06.276Z,1001.32
2016-05-30T06:56:06.294Z,1001.31
2016-05-30T06:57:06.328Z,1001.3
2016-05-30T06:58:06.362Z,1001.34
2016-05-30T06:59:06.364Z,1001.35
2016-05-30T07:00:06.399Z,1001.38
2016-05-30T07:01:06.416Z,1001.42
2016-05-30T07:02:06.450Z,1001.4
2016-05-30T07:03:07.438Z,1001.39
2016-05-30T07:04:06.503Z,1001.44
2016-05-30T07:05:06.522Z,1001.41
2016-05-30T07:06:06.555Z,1001.43
2016-05-30T07:07:06.574Z,1001.42
2016-05-30T07:08:06.607Z,1001.48
2016-05-30T07:09:06.626Z,1001.49
2016-05-30T07:10:06.643Z,1001.44
2016-05-30T07:11:06.679Z,1001.43
2016-05-30T07:12:06.696Z,1001.4
2016-05-30T07:13:06.729Z,1001.36
2016-05-30T07:14:06.749Z,1001.37
2016-05-30T07:15:06.782Z,1001.37
2016-05-30T07:16:06.801Z,1001.39
2016-05-30T07:17:06.835Z,1001.4
2016-05-30T07:18:06.854Z,1001.4
2016-05-30T07:19:06.871Z,1001.45
2016-05-30T07:20:06.906Z,1001.38
2016-05-30T07:21:06.923Z,1001.47
2016-05-30T07:22:06.958Z,1001.45
2016-05-30T07:23:06.976Z,1001.46
2016-05-30T07:24:07.009Z,1001.45
2016-05-30T07:25:10.512Z,1001.49
2016-05-30T07:26:07.047Z,1001.44
2016-05-30T07:27:07.081Z,1001.35
2016-05-30T07:28:07.099Z,1001.37
2016-05-30T07:29:07.133Z,1001.33
2016-05-30T07:30:07.151Z,1001.26
2016-05-30T07:31:07.185Z,1001.25
2016-05-30T07:32:07.203Z,1001.22
2016-05-30T07:33:07.221Z,1001.22
2016-05-30T07:34:07.255Z,1001.17
2016-05-30T07:35:07.274Z,1001.18
2016-05-30T07:36:07.308Z,1001.17
2016-05-30T07:37:07.357Z,1001.16
2016-05-30T07:38:07.360Z,1001.21
2016-05-30T07:39:07.378Z,1001.14
2016-05-30T07:40:08.585Z,1001.18
2016-05-30T07:41:07.430Z,1001.2
2016-05-30T07:42:07.465Z,1001.25
2016-05-30T07:43:07.482Z,1001.26
2016-05-30T07:44:07.502Z,1001.28
2016-05-30T07:45:07.535Z,1001.39
2016-05-30T07:46:07.553Z,1001.42
2016-05-30T07:47:07.587Z,1001.48
2016-05-30T07:48:10.371Z,1001.48
2016-05-30T07:49:07.640Z,1001.47
2016-05-30T07:50:08.079Z,1001.45
2016-05-30T07:51:07.692Z,1001.45
2016-05-30T07:52:07.709Z,1001.47
2016-05-30T07:53:07.728Z,1001.46
2016-05-30T07:54:07.762Z,1001.47
2016-05-30T07:55:09.875Z,1001.48
2016-05-30T07:56:07.815Z,1001.54
2016-05-30T07:57:07.833Z,1001.53
2016-05-30T07:58:07.867Z,1001.56
2016-05-30T07:59:07.885Z,1001.59
2016-05-30T08:00:07.919Z,1001.61
2016-05-30T08:01:07.938Z,1001.62
2016-05-30T08:02:07.972Z,1001.6
2016-05-30T08:03:07.989Z,1001.63
2016-05-30T08:04:08.008Z,1001.62
2016-05-30T08:05:08.042Z,1001.64
2016-05-30T08:06:08.060Z,1001.63
2016-05-30T08:07:08.094Z,1001.64
2016-05-30T08:08:08.113Z,1001.67
2016-05-30T08:09:08.147Z,1001.67
2016-05-30T08:10:08.165Z,1001.74
2016-05-30T08:11:08.183Z,1001.66
2016-05-30T08:12:08.217Z,1001.72
2016-05-30T08:13:08.610Z,1001.75
2016-05-30T08:14:08.269Z,1001.75
2016-05-30T08:15:08.288Z,1001.72
2016-05-30T08:16:08.322Z,1001.69
2016-05-30T08:17:08.340Z,1001.7
2016-05-30T08:18:08.374Z,1001.73
2016-05-30T08:19:08.392Z,1001.68
2016-05-30T08:20:08.410Z,1001.71
2016-05-30T08:21:08.445Z,1001.69
2016-05-30T08:22:08.479Z,1001.65
2016-05-30T08:23:08.763Z,1001.6
2016-05-30T08:24:08.514Z,1001.6
2016-05-30T08:25:08.548Z,1001.59
2016-05-30T08:26:08.567Z,1001.52
2016-05-30T08:27:08.586Z,1001.49
2016-05-30T08:28:08.620Z,1001.51
2016-05-30T08:29:08.638Z,1001.45
2016-05-30T08:30:08.672Z,1001.45
2016-05-30T08:31:08.689Z,1001.52
2016-05-30T08:32:08.724Z,1001.47
2016-05-30T08:33:08.758Z,1001.43
2016-05-30T08:34:08.777Z,1001.5
2016-05-30T08:35:08.794Z,1001.42
2016-05-30T08:36:08.813Z,1001.43
2016-05-30T08:37:09.066Z,1001.46
2016-05-30T08:38:08.880Z,1001.44
2016-05-30T08:39:08.899Z,1001.36
2016-05-30T08:40:08.918Z,1001.44
2016-05-30T08:41:08.952Z,1001.48
2016-05-30T08:42:08.970Z,1001.48
2016-05-30T08:43:09.003Z,1001.49
2016-05-30T08:44:09.022Z,1001.45
2016-05-30T08:45:09.056Z,1001.44
2016-05-30T08:46:09.074Z,1001.42
2016-05-30T08:47:09.107Z,1001.45
2016-05-30T08:48:09.126Z,1001.43
2016-05-30T08:49:09.145Z,1001.39
2016-05-30T08:50:09.179Z,1001.42
2016-05-30T08:51:09.198Z,1001.4
2016-05-30T08:52:09.231Z,1001.39
2016-05-30T08:53:09.248Z,1001.38
2016-05-30T08:54:09.283Z,1001.33
2016-05-30T08:55:09.301Z,1001.34
2016-05-30T08:56:09.320Z,1001.36
2016-05-30T08:57:09.354Z,1001.33
2016-05-30T08:58:09.373Z,1001.36
2016-05-30T08:59:09.406Z,1001.35
2016-05-30T09:00:09.424Z,1001.29
2016-05-30T09:01:09.442Z,1001.33
2016-05-30T09:02:09.477Z,1001.33
2016-05-30T09:03:09.511Z,1001.3
2016-05-30T09:04:09.529Z,1001.35
2016-05-30T09:05:09.547Z,1001.41
2016-05-30T09:06:09.581Z,1001.42
2016-05-30T09:07:09.599Z,1001.46
2016-05-30T09:08:09.634Z,1001.52
2016-05-30T09:09:09.652Z,1001.5
2016-05-30T09:10:09.685Z,1001.53
2016-05-30T09:11:09.719Z,1001.5
2016-05-30T09:12:09.722Z,1001.44
2016-05-30T09:13:09.757Z,1001.53
2016-05-30T09:14:09.790Z,1001.55
2016-05-30T09:15:09.808Z,1001.52
2016-05-30T09:16:09.826Z,1001.51
2016-05-30T09:17:09.860Z,1001.52
2016-05-30T09:18:09.879Z,1001.54
2016-05-30T09:19:09.913Z,1001.48
2016-05-30T09:20:09.932Z,1001.45
2016-05-30T09:21:09.965Z,1001.48
2016-05-30T09:22:10.421Z,1001.42
2016-05-30T09:23:10.017Z,1001.44
2016-05-30T09:24:10.036Z,1001.42
2016-05-30T09:25:10.054Z,1001.38
2016-05-30T09:26:10.088Z,1001.34
2016-05-30T09:27:10.106Z,1001.31
2016-05-30T09:28:10.139Z,1001.27
2016-05-30T09:29:10.159Z,1001.28
2016-05-30T09:30:10.192Z,1001.21
2016-05-30T09:31:10.211Z,1001.25
2016-05-30T09:32:10.245Z,1001.2
2016-05-30T09:33:10.264Z,1001.23
2016-05-30T09:34:10.281Z,1001.21
2016-05-30T09:35:10.316Z,1001.21
2016-05-30T09:36:10.333Z,1001.2
2016-05-30T09:37:10.368Z,1001.14
2016-05-30T09:38:10.386Z,1001.08
2016-05-30T09:39:10.419Z,1001.01
2016-05-30T09:40:10.438Z,1001.17
2016-05-30T09:41:10.457Z,1001.37
2016-05-30T09:42:10.490Z,1001.46
2016-05-30T09:43:10.509Z,1001.53
2016-05-30T09:44:10.543Z,1001.55
2016-05-30T09:45:10.560Z,1001.62
2016-05-30T09:46:10.596Z,1001.74
2016-05-30T09:47:10.613Z,1001.84
2016-05-30T09:48:10.646Z,1001.83
2016-05-30T09:49:10.666Z,1001.8
2016-05-30T09:50:10.684Z,1001.67
2016-05-30T09:51:10.718Z,1001.56
2016-05-30T09:52:10.736Z,1001.36
2016-05-30T09:53:10.770Z,1001.2
2016-05-30T09:54:10.787Z,1001.07
2016-05-30T09:55:10.853Z,1001.09
2016-05-30T09:56:10.840Z,1001.16
2016-05-30T09:57:10.875Z,1001.36
2016-05-30T09:58:10.892Z,1001.47
2016-05-30T09:59:10.926Z,1001.5
2016-05-30T10:00:10.945Z,1001.54
2016-05-30T10:01:10.964Z,1001.57
2016-05-30T10:02:10.997Z,1001.61
2016-05-30T10:03:11.016Z,1001.59
2016-05-30T10:04:11.050Z,1001.54
2016-05-30T10:05:11.068Z,1001.51
2016-05-30T10:06:11.102Z,1001.46
2016-05-30T10:07:11.136Z,1001.5
2016-05-30T10:08:11.155Z,1001.53
2016-05-30T10:09:11.173Z,1001.53
2016-05-30T10:10:11.206Z,1001.46
2016-05-30T10:11:11.225Z,1001.53
2016-05-30T10:12:11.259Z,1001.65
2016-05-30T10:13:11.277Z,1001.63
2016-05-30T10:14:11.296Z,1001.64
2016-05-30T10:15:11.330Z,1001.86
2016-05-30T10:16:11.363Z,1002.02
2016-05-30T10:17:11.382Z,1001.98
2016-05-30T10:18:11.399Z,1002.01
2016-05-30T10:19:11.418Z,1002.06
2016-05-30T10:20:11.452Z,1002.08
2016-05-30T10:21:11.470Z,1001.96
2016-05-30T10:22:11.504Z,1001.71
2016-05-30T10:23:11.523Z,1001.62
2016-05-30T10:24:11.557Z,1001.72
2016-05-30T10:25:11.575Z,1001.68
2016-05-30T10:26:11.609Z,1001.6
2016-05-30T10:27:11.627Z,1001.6
2016-05-30T10:28:11.645Z,1001.68
2016-05-30T10:29:11.679Z,1001.7
2016-05-30T10:30:11.698Z,1001.72
2016-05-30T10:31:11.731Z,1001.74
2016-05-30T10:32:11.750Z,1001.73
2016-05-30T10:33:11.784Z,1001.75
2016-05-30T10:34:11.802Z,1001.73
2016-05-30T10:35:11.836Z,1001.72
2016-05-30T10:36:11.855Z,1001.7
2016-05-30T10:37:11.889Z,1001.68
2016-05-30T10:38:11.906Z,1001.66
2016-05-30T10:39:11.925Z,1001.58
2016-05-30T10:40:11.958Z,1001.62
2016-05-30T10:41:11.978Z,1001.62
2016-05-30T10:42:12.011Z,1001.63
2016-05-30T10:43:12.045Z,1001.6
2016-05-30T10:44:12.064Z,1001.52
2016-05-30T10:45:12.082Z,1001.44
2016-05-30T10:46:12.099Z,1001.38
2016-05-30T10:47:12.135Z,1001.37
2016-05-30T10:48:12.152Z,1001.32
2016-05-30T10:49:12.185Z,1001.31
2016-05-30T10:50:12.204Z,1001.31
2016-05-30T10:51:12.239Z,1001.29
2016-05-30T10:52:12.257Z,1001.31
2016-05-30T10:53:12.291Z,1001.31
2016-05-30T10:54:12.310Z,1001.29
2016-05-30T10:55:12.343Z,1001.34
2016-05-30T10:56:12.362Z,1001.41
2016-05-30T10:57:12.396Z,1001.43
2016-05-30T10:58:12.414Z,1001.55
2016-05-30T10:59:12.432Z,1001.55
2016-05-30T11:00:12.481Z,1001.62
2016-05-30T11:01:12.484Z,1001.57
2016-05-30T11:02:12.518Z,1001.56
2016-05-30T11:03:12.536Z,1001.56
2016-05-30T11:04:12.570Z,1001.51
2016-05-30T11:05:12.589Z,1001.52
2016-05-30T11:06:12.606Z,1001.5
2016-05-30T11:07:12.641Z,1001.4
2016-05-30T11:08:12.659Z,1001.38
2016-05-30T11:09:12.693Z,1001.44
2016-05-30T11:10:12.711Z,1001.43
2016-05-30T11:11:12.745Z,1001.41
2016-05-30T11:12:12.780Z,1001.36
2016-05-30T11:13:12.797Z,1001.31
2016-05-30T11:14:12.816Z,1001.3
2016-05-30T11:15:12.850Z,1001.24
2016-05-30T11:16:12.868Z,1001.17
2016-05-30T11:17:12.902Z,1001.11
2016-05-30T11:18:12.921Z,1001.07
2016-05-30T11:19:12.939Z,1000.99
2016-05-30T11:20:12.973Z,1000.97
2016-05-30T11:21:12.991Z,1001.06
2016-05-30T11:22:13.025Z,1001.04
2016-05-30T11:23:13.044Z,1001
2016-05-30T11:24:13.077Z,1001.02
2016-05-30T11:25:13.096Z,1001.09
2016-05-30T11:26:13.129Z,1001.14
2016-05-30T11:27:13.148Z,1001.23
2016-05-30T11:28:13.181Z,1001.31
2016-05-30T11:29:13.201Z,1001.33
2016-05-30T11:30:13.234Z,1001.36
2016-05-30T11:31:13.253Z,1001.36
2016-05-30T11:32:13.270Z,1001.38
2016-05-30T11:33:13.304Z,1001.36
2016-05-30T11:34:13.339Z,1001.4
2016-05-30T11:35:13.357Z,1001.41
2016-05-30T11:36:13.391Z,1001.4
2016-05-30T11:37:13.690Z,1001.37
2016-05-30T11:38:13.427Z,1001.39
2016-05-30T11:39:13.462Z,1001.4
2016-05-30T11:40:13.480Z,1001.4
2016-05-30T11:41:13.497Z,1001.42
2016-05-30T11:42:13.532Z,1001.39
2016-05-30T11:43:13.550Z,1001.42
2016-05-30T11:44:13.584Z,1001.4
2016-05-30T11:45:13.633Z,1001.38
2016-05-30T11:46:13.672Z,1001.37
2016-05-30T11:47:13.711Z,1001.37
2016-05-30T11:48:13.765Z,1001.36
2016-05-30T11:49:13.803Z,1001.37
2016-05-30T11:50:13.848Z,1001.38
2016-05-30T11:51:13.874Z,1001.37
2016-05-30T11:52:13.899Z,1001.32
2016-05-30T11:53:13.941Z,1001.34
2016-05-30T11:54:13.966Z,1001.34
2016-05-30T11:55:14.003Z,1001.28
2016-05-30T11:56:14.040Z,1001.3
2016-05-30T11:57:14.061Z,1001.27
2016-05-30T11:58:14.082Z,1001.29
2016-05-30T11:59:14.119Z,1001.28
2016-05-30T12:00:14.139Z,1001.29
2016-05-30T12:01:14.158Z,1001.28
2016-05-30T12:02:14.194Z,1001.28
2016-05-30T12:03:14.229Z,1001.21
2016-05-30T12:04:14.248Z,1001.21
2016-05-30T12:05:14.267Z,1001.16
2016-05-30T12:06:14.301Z,1001.2
2016-05-30T12:07:14.320Z,1001.21
2016-05-30T12:08:14.354Z,1001.27
2016-05-30T12:09:14.373Z,1001.24